Terminal Aerodrome Forecast
Issued by NWS Twin Cities, MN

Home | Current Version | Previous Version | Text Only | Print | Product List | Glossary Off
Versions: 1 2 3 4 5 6 7 8 9 10 11 12 13 14 15 16 17 18

000
FTUS43 KMPX 022336
TAFSTC
TAF
KSTC 022336Z 0300/0324 18010KT P6SM SCT080
     FM030400 17006KT P6SM VCSH BKN060 OVC150
     FM030700 18006KT P6SM SCT060 BKN120
     FM031700 28008KT P6SM VCSH BKN050 OVC090
     FM032000 33012G18KT P6SM BKN060=

USA.gov is the U.S. government's official web portal to all federal, state and local government web resources and services.